Time,TemperatureF,DewpointF,PressureIn,WindDirection,WindDirectionDegrees,WindSpeedMPH,WindSpeedGustMPH,Humidity,HourlyPrecipIn,Conditions,Clouds,dailyrainin,SoftwareType,DateUTC
2013-09-13 00:13:00,55.0,48.0,30.19,North,1,1.0,4.0,76,0.00,,,0.00,,2013-09-13 05:13:00,
2013-09-13 00:22:00,55.0,48.0,30.19,North,1,2.0,4.0,76,0.00,,,0.00,,2013-09-13 05:22:00,
2013-09-13 00:43:00,54.0,48.0,30.20,North,358,1.0,2.0,79,0.00,,,0.00,,2013-09-13 05:43:00,
2013-09-13 00:53:00,52.0,46.0,30.20,North,350,1.0,2.0,81,0.00,,,0.00,,2013-09-13 05:53:00,
2013-09-13 01:12:00,52.0,47.0,30.20,North,4,1.0,2.0,82,0.00,,,0.00,,2013-09-13 06:12:00,
2013-09-13 01:22:00,52.0,47.0,30.20,North,6,1.0,2.0,82,0.00,,,0.00,,2013-09-13 06:22:00,
2013-09-13 01:52:00,51.0,46.0,30.20,NNW,346,1.0,2.0,83,0.00,,,0.00,,2013-09-13 06:52:00,
2013-09-13 02:11:00,51.0,46.0,30.21,NNW,346,1.0,2.0,84,0.00,,,0.00,,2013-09-13 07:11:00,
2013-09-13 02:22:00,50.0,45.0,30.21,North,350,0.0,2.0,84,0.00,,,0.00,,2013-09-13 07:22:00,
2013-09-13 02:43:00,50.0,46.0,30.21,NNW,335,0.0,1.0,85,0.00,,,0.00,,2013-09-13 07:43:00,
2013-09-13 02:52:00,50.0,46.0,30.21,NNW,335,0.0,1.0,85,0.00,,,0.00,,2013-09-13 07:52:00,
2013-09-13 03:11:00,49.0,45.0,30.21,NNW,342,0.0,1.0,85,0.00,,,0.00,,2013-09-13 08:11:00,
2013-09-13 03:22:00,49.0,45.0,30.21,NNW,344,0.0,2.0,86,0.00,,,0.00,,2013-09-13 08:22:00,
2013-09-13 03:42:00,49.0,45.0,30.21,North,1,1.0,2.0,87,0.00,,,0.00,,2013-09-13 08:42:00,
2013-09-13 03:52:00,48.0,44.0,30.20,North,4,1.0,2.0,87,0.00,,,0.00,,2013-09-13 08:52:00,
2013-09-13 04:12:00,48.0,45.0,30.20,North,1,1.0,2.0,88,0.00,,,0.00,,2013-09-13 09:12:00,
2013-09-13 04:21:00,48.0,45.0,30.20,North,358,1.0,2.0,88,0.00,,,0.00,,2013-09-13 09:21:00,
2013-09-13 04:43:00,48.0,45.0,30.21,North,359,0.0,1.0,88,0.00,,,0.00,,2013-09-13 09:43:00,
2013-09-13 04:53:00,48.0,45.0,30.21,North,357,0.0,1.0,89,0.00,,,0.00,,2013-09-13 09:53:00,
2013-09-13 05:13:00,48.0,45.0,30.21,North,356,0.0,1.0,88,0.00,,,0.00,,2013-09-13 10:13:00,
2013-09-13 05:23:00,48.0,45.0,30.22,North,355,0.0,1.0,89,0.00,,,0.00,,2013-09-13 10:23:00,
2013-09-13 05:42:00,47.0,44.0,30.22,North,356,0.0,1.0,89,0.00,,,0.00,,2013-09-13 10:42:00,
2013-09-13 05:52:00,46.0,43.0,30.22,North,356,0.0,1.0,89,0.00,,,0.00,,2013-09-13 10:52:00,
2013-09-13 06:12:00,45.0,42.0,30.22,North,355,0.0,0.0,90,0.00,,,0.00,,2013-09-13 11:12:00,
2013-09-13 06:22:00,45.0,43.0,30.22,North,355,0.0,1.0,92,0.00,,,0.00,,2013-09-13 11:22:00,
2013-09-13 06:42:00,44.0,42.0,30.22,North,356,0.0,0.0,93,0.00,,,0.00,,2013-09-13 11:42:00,
2013-09-13 06:52:00,44.0,42.0,30.22,North,356,0.0,0.0,93,0.00,,,0.00,,2013-09-13 11:52:00,
2013-09-13 07:12:00,44.0,42.0,30.23,North,356,0.0,0.0,93,0.00,,,0.00,,2013-09-13 12:12:00,
2013-09-13 07:22:00,44.0,42.0,30.24,North,355,0.0,1.0,94,0.00,,,0.00,,2013-09-13 12:22:00,
2013-09-13 07:42:00,45.0,43.0,30.24,North,355,0.0,1.0,93,0.00,,,0.00,,2013-09-13 12:42:00,
2013-09-13 07:52:00,46.0,44.0,30.25,North,359,0.0,1.0,91,0.00,,,0.00,,2013-09-13 12:52:00,
2013-09-13 08:11:00,47.0,44.0,30.25,North,5,1.0,2.0,90,0.00,,,0.00,,2013-09-13 13:11:00,
2013-09-13 08:21:00,48.0,45.0,30.25,North,1,0.0,2.0,90,0.00,,,0.00,,2013-09-13 13:21:00,
2013-09-13 08:52:00,52.0,48.0,30.26,North,8,1.0,2.0,86,0.00,,,0.00,,2013-09-13 13:52:00,
2013-09-13 09:22:00,56.0,50.0,30.25,East,97,1.0,3.0,79,0.00,,,0.00,,2013-09-13 14:22:00,
2013-09-13 09:32:00,56.0,50.0,30.25,East,97,1.0,3.0,79,0.00,,,0.00,,2013-09-13 14:32:00,
2013-09-13 09:42:00,56.0,50.0,30.25,East,97,1.0,3.0,79,0.00,,,0.00,,2013-09-13 14:42:00,
2013-09-13 09:52:00,57.0,50.0,30.26,SE,138,3.0,5.0,76,0.00,,,0.00,,2013-09-13 14:52:00,
2013-09-13 10:11:00,58.0,49.0,30.26,East,79,2.0,4.0,73,0.00,,,0.00,,2013-09-13 15:11:00,
2013-09-13 10:22:00,60.0,51.0,30.26,SSE,155,2.0,3.0,72,0.00,,,0.00,,2013-09-13 15:22:00,
2013-09-13 10:43:00,61.0,51.0,30.26,SSW,193,3.0,6.0,70,0.00,,,0.00,,2013-09-13 15:43:00,
2013-09-13 10:53:00,62.0,52.0,30.26,East,88,2.0,5.0,71,0.00,,,0.00,,2013-09-13 15:53:00,
2013-09-13 11:12:00,62.0,50.0,30.26,SSW,198,3.0,5.0,65,0.00,,,0.00,,2013-09-13 16:12:00,
2013-09-13 11:24:00,63.0,52.0,30.25,ENE,71,1.0,5.0,68,0.00,,,0.00,,2013-09-13 16:24:00,
2013-09-13 11:43:00,65.0,53.0,30.25,SSE,158,1.0,4.0,64,0.00,,,0.00,,2013-09-13 16:43:00,
2013-09-13 11:54:00,66.0,51.0,30.24,East,101,1.0,3.0,58,0.00,,,0.00,,2013-09-13 16:54:00,
2013-09-13 12:13:00,66.0,48.0,30.24,SSW,211,1.0,4.0,52,0.00,,,0.00,,2013-09-13 17:13:00,
2013-09-13 12:24:00,66.0,47.0,30.24,NE,49,1.0,3.0,50,0.00,,,0.00,,2013-09-13 17:24:00,
2013-09-13 12:44:00,67.0,50.0,30.23,NE,47,1.0,4.0,55,0.00,,,0.00,,2013-09-13 17:44:00,
2013-09-13 12:53:00,67.0,48.0,30.22,NNW,346,3.0,6.0,50,0.00,,,0.00,,2013-09-13 17:53:00,
2013-09-13 13:12:00,67.0,49.0,30.22,North,4,2.0,5.0,53,0.00,,,0.00,,2013-09-13 18:12:00,
2013-09-13 13:22:00,67.0,47.0,30.21,East,98,2.0,5.0,49,0.00,,,0.00,,2013-09-13 18:22:00,
2013-09-13 13:42:00,68.0,48.0,30.21,NE,39,1.0,5.0,48,0.00,,,0.00,,2013-09-13 18:42:00,
2013-09-13 13:52:00,69.0,48.0,30.20,ENE,70,1.0,4.0,47,0.00,,,0.00,,2013-09-13 18:52:00,
2013-09-13 14:11:00,69.0,48.0,30.20,NE,47,1.0,5.0,48,0.00,,,0.00,,2013-09-13 19:11:00,
2013-09-13 14:22:00,69.0,48.0,30.19,NW,314,1.0,4.0,48,0.00,,,0.00,,2013-09-13 19:22:00,
2013-09-13 14:43:00,69.0,50.0,30.18,NNE,13,1.0,4.0,51,0.00,,,0.00,,2013-09-13 19:43:00,
2013-09-13 14:52:00,69.0,48.0,30.18,SSE,149,2.0,4.0,47,0.00,,,0.00,,2013-09-13 19:52:00,
2013-09-13 15:11:00,70.0,50.0,30.17,ESE,116,2.0,4.0,49,0.00,,,0.00,,2013-09-13 20:11:00,
2013-09-13 15:22:00,69.0,48.0,30.16,East,101,0.0,3.0,47,0.00,,,0.00,,2013-09-13 20:22:00,
2013-09-13 15:52:00,70.0,46.0,30.16,SSW,204,1.0,3.0,43,0.00,,,0.00,,2013-09-13 20:52:00,
2013-09-13 16:12:00,71.0,47.0,30.15,SE,138,0.0,2.0,43,0.00,,,0.00,,2013-09-13 21:12:00,
2013-09-13 16:22:00,71.0,47.0,30.15,SE,131,2.0,4.0,42,0.00,,,0.00,,2013-09-13 21:22:00,
2013-09-13 16:54:00,70.0,48.0,30.14,North,4,1.0,3.0,45,0.00,,,0.00,,2013-09-13 21:54:00,
2013-09-13 17:13:00,71.0,49.0,30.14,North,359,0.0,2.0,46,0.00,,,0.00,,2013-09-13 22:13:00,
2013-09-13 17:24:00,71.0,50.0,30.14,ESE,108,1.0,4.0,48,0.00,,,0.00,,2013-09-13 22:24:00,
2013-09-13 17:43:00,71.0,50.0,30.13,SE,134,0.0,2.0,47,0.00,,,0.00,,2013-09-13 22:43:00,
2013-09-13 17:53:00,72.0,49.0,30.13,SSE,162,1.0,4.0,44,0.00,,,0.00,,2013-09-13 22:53:00,
2013-09-13 18:12:00,71.0,47.0,30.13,SE,127,0.0,3.0,43,0.00,,,0.00,,2013-09-13 23:12:00,
2013-09-13 18:22:00,70.0,49.0,30.12,SE,138,1.0,3.0,47,0.00,,,0.00,,2013-09-13 23:22:00,
2013-09-13 18:52:00,68.0,49.0,30.12,East,84,0.0,0.0,51,0.00,,,0.00,,2013-09-13 23:52:00,
2013-09-13 19:12:00,66.0,52.0,30.12,East,84,0.0,0.0,60,0.00,,,0.00,,2013-09-14 00:12:00,
2013-09-13 19:22:00,64.0,50.0,30.11,East,83,0.0,0.0,60,0.00,,,0.00,,2013-09-14 00:22:00,
2013-09-13 19:42:00,63.0,51.0,30.11,East,84,0.0,0.0,64,0.00,,,0.00,,2013-09-14 00:42:00,
2013-09-13 19:52:00,61.0,50.0,30.10,East,84,0.0,0.0,68,0.00,,,0.00,,2013-09-14 00:52:00,
2013-09-13 20:02:00,61.0,50.0,30.10,East,84,0.0,0.0,68,0.00,,,0.00,,2013-09-14 01:02:00,
2013-09-13 20:11:00,61.0,50.0,30.10,East,84,0.0,0.0,68,0.00,,,0.00,,2013-09-14 01:11:00,
2013-09-13 20:22:00,61.0,50.0,30.10,East,84,0.0,0.0,68,0.00,,,0.00,,2013-09-14 01:22:00,
2013-09-13 20:42:00,56.0,49.0,30.11,East,93,0.0,1.0,76,0.00,,,0.00,,2013-09-14 01:42:00,
2013-09-13 20:52:00,56.0,49.0,30.10,East,93,0.0,1.0,76,0.00,,,0.00,,2013-09-14 01:52:00,
2013-09-13 21:12:00,55.0,48.0,30.10,East,93,0.0,0.0,77,0.00,,,0.00,,2013-09-14 02:12:00,
2013-09-13 21:22:00,55.0,48.0,30.11,East,93,0.0,0.0,77,0.00,,,0.00,,2013-09-14 02:22:00,
2013-09-13 21:42:00,54.0,47.0,30.11,East,94,0.0,0.0,78,0.00,,,0.00,,2013-09-14 02:42:00,
2013-09-13 21:52:00,53.0,47.0,30.10,East,93,0.0,0.0,80,0.00,,,0.00,,2013-09-14 02:52:00,
2013-09-13 22:12:00,52.0,47.0,30.10,East,93,0.0,0.0,83,0.00,,,0.00,,2013-09-14 03:12:00,
2013-09-13 22:22:00,52.0,47.0,30.10,East,95,0.0,1.0,83,0.00,,,0.00,,2013-09-14 03:22:00,
2013-09-13 22:54:00,51.0,47.0,30.10,South,169,1.0,2.0,85,0.00,,,0.00,,2013-09-14 03:54:00,
2013-09-13 23:14:00,51.0,46.0,30.10,South,181,1.0,2.0,82,0.00,,,0.00,,2013-09-14 04:14:00,
2013-09-13 23:24:00,51.0,46.0,30.11,South,190,1.0,3.0,82,0.00,,,0.00,,2013-09-14 04:24:00,
2013-09-13 23:43:00,50.0,45.0,30.10,South,184,2.0,2.0,83,0.00,,,0.00,,2013-09-14 04:43:00,
2013-09-13 23:54:00,50.0,45.0,30.10,South,177,1.0,3.0,84,0.00,,,0.00,,2013-09-14 04:54:00,